Akron, Indiana
Current Conditions -  °F | °C
As of 5:55 PM on Thursday 18 Dec 2014 (Local Time) from KRCR Reporting Station
Overcast Overcast  
Wind Chill: -1°   Ceiling: 2600
Heat Index: -1°   Visibility: 10mi
Dew Point: -5°   Wind: 3mph
Humidity: 75%   Direction: 280°W
Pressure: 30.23"   Gusts: NA
Location:  41.04°N, 86.03°W
Report Text: KRCR 182255Z AUTO 28003KT 10SM SCT017 OVC026 M01/M05 A3023 RMK AO2
Loading
Personal Weather Stations






























Interactive Weather Map New forecast layout! Learn more

10-Day Weather Forecast

Advertisements
Track Severe Weather on mobile